sensor_id;sensor_type;location;lat;lon;timestamp;P1;durP1;ratioP1;P2;durP2;ratioP2
25667;SDS011;18003;-33.830;151.202;2022-12-20T00:00:21;8.05;;;3.37;;
25667;SDS011;18003;-33.830;151.202;2022-12-20T00:02:51;5.95;;;3.20;;
25667;SDS011;18003;-33.830;151.202;2022-12-20T00:05:21;7.42;;;3.20;;
25667;SDS011;18003;-33.830;151.202;2022-12-20T00:07:51;7.75;;;2.90;;
25667;SDS011;18003;-33.830;151.202;2022-12-20T00:10:21;6.70;;;3.33;;
25667;SDS011;18003;-33.830;151.202;2022-12-20T00:12:52;7.58;;;2.77;;
25667;SDS011;18003;-33.830;151.202;2022-12-20T00:15:22;7.08;;;3.10;;
25667;SDS011;18003;-33.830;151.202;2022-12-20T00:17:52;8.70;;;3.27;;
25667;SDS011;18003;-33.830;151.202;2022-12-20T00:20:22;9.20;;;3.35;;
25667;SDS011;18003;-33.830;151.202;2022-12-20T00:22:52;6.78;;;2.90;;
25667;SDS011;18003;-33.830;151.202;2022-12-20T00:25:23;10.72;;;3.65;;
25667;SDS011;18003;-33.830;151.202;2022-12-20T00:27:53;8.63;;;2.92;;
25667;SDS011;18003;-33.830;151.202;2022-12-20T00:30:23;9.18;;;2.90;;
25667;SDS011;18003;-33.830;151.202;2022-12-20T00:32:53;6.53;;;3.00;;
25667;SDS011;18003;-33.830;151.202;2022-12-20T00:35:28;9.50;;;3.20;;
25667;SDS011;18003;-33.830;151.202;2022-12-20T00:37:54;7.95;;;2.75;;
25667;SDS011;18003;-33.830;151.202;2022-12-20T00:40:24;8.78;;;3.27;;
25667;SDS011;18003;-33.830;151.202;2022-12-20T00:42:55;8.00;;;2.67;;
25667;SDS011;18003;-33.830;151.202;2022-12-20T00:45:25;15.10;;;3.12;;
25667;SDS011;18003;-33.830;151.202;2022-12-20T00:47:55;7.80;;;3.10;;
25667;SDS011;18003;-33.830;151.202;2022-12-20T00:50:26;9.75;;;2.80;;
25667;SDS011;18003;-33.830;151.202;2022-12-20T00:52:55;6.85;;;3.02;;
25667;SDS011;18003;-33.830;151.202;2022-12-20T00:55:26;7.47;;;2.92;;
25667;SDS011;18003;-33.830;151.202;2022-12-20T00:57:56;5.67;;;2.75;;
25667;SDS011;18003;-33.830;151.202;2022-12-20T01:00:26;5.10;;;2.65;;
25667;SDS011;18003;-33.830;151.202;2022-12-20T01:02:55;5.90;;;2.52;;
25667;SDS011;18003;-33.830;151.202;2022-12-20T01:05:25;7.12;;;2.60;;
25667;SDS011;18003;-33.830;151.202;2022-12-20T01:07:56;5.37;;;2.40;;
25667;SDS011;18003;-33.830;151.202;2022-12-20T01:10:26;7.42;;;2.60;;
25667;SDS011;18003;-33.830;151.202;2022-12-20T01:12:56;9.43;;;3.05;;
25667;SDS011;18003;-33.830;151.202;2022-12-20T01:15:27;8.10;;;2.80;;
25667;SDS011;18003;-33.830;151.202;2022-12-20T01:17:57;9.48;;;2.80;;
25667;SDS011;18003;-33.830;151.202;2022-12-20T01:20:27;8.03;;;3.20;;
25667;SDS011;18003;-33.830;151.202;2022-12-20T01:22:57;7.45;;;3.15;;
25667;SDS011;18003;-33.830;151.202;2022-12-20T01:25:27;7.00;;;3.10;;
25667;SDS011;18003;-33.830;151.202;2022-12-20T01:27:57;7.78;;;3.20;;
25667;SDS011;18003;-33.830;151.202;2022-12-20T01:30:27;11.38;;;3.10;;
25667;SDS011;18003;-33.830;151.202;2022-12-20T01:32:57;7.12;;;3.20;;
25667;SDS011;18003;-33.830;151.202;2022-12-20T01:35:27;6.87;;;3.27;;
25667;SDS011;18003;-33.830;151.202;2022-12-20T01:37:57;9.00;;;2.83;;
25667;SDS011;18003;-33.830;151.202;2022-12-20T01:40:27;6.20;;;2.60;;
25667;SDS011;18003;-33.830;151.202;2022-12-20T01:42:57;7.37;;;2.90;;
25667;SDS011;18003;-33.830;151.202;2022-12-20T01:45:28;6.95;;;3.10;;
25667;SDS011;18003;-33.830;151.202;2022-12-20T01:47:58;10.80;;;3.58;;
25667;SDS011;18003;-33.830;151.202;2022-12-20T01:50:29;8.08;;;3.05;;
25667;SDS011;18003;-33.830;151.202;2022-12-20T01:52:59;6.22;;;2.70;;
25667;SDS011;18003;-33.830;151.202;2022-12-20T01:58:04;8.28;;;2.55;;
25667;SDS011;18003;-33.830;151.202;2022-12-20T02:00:31;8.33;;;2.70;;
25667;SDS011;18003;-33.830;151.202;2022-12-20T02:03:08;7.33;;;2.60;;
25667;SDS011;18003;-33.830;151.202;2022-12-20T02:05:40;4.28;;;2.60;;
25667;SDS011;18003;-33.830;151.202;2022-12-20T02:10:43;6.05;;;2.60;;
25667;SDS011;18003;-33.830;151.202;2022-12-20T02:13:16;9.38;;;2.80;;
25667;SDS011;18003;-33.830;151.202;2022-12-20T02:15:50;8.73;;;2.72;;
25667;SDS011;18003;-33.830;151.202;2022-12-20T02:18:21;7.87;;;3.65;;
25667;SDS011;18003;-33.830;151.202;2022-12-20T02:23:44;7.00;;;2.80;;
25667;SDS011;18003;-33.830;151.202;2022-12-20T02:26:37;9.15;;;3.12;;
25667;SDS011;18003;-33.830;151.202;2022-12-20T02:34:38;7.95;;;3.10;;
25667;SDS011;18003;-33.830;151.202;2022-12-20T02:37:09;7.42;;;2.70;;
25667;SDS011;18003;-33.830;151.202;2022-12-20T02:39:39;6.70;;;2.60;;
25667;SDS011;18003;-33.830;151.202;2022-12-20T02:44:43;5.22;;;2.50;;
25667;SDS011;18003;-33.830;151.202;2022-12-20T02:47:32;5.72;;;2.37;;
25667;SDS011;18003;-33.830;151.202;2022-12-20T02:50:02;5.15;;;2.25;;
25667;SDS011;18003;-33.830;151.202;2022-12-20T02:55:03;8.38;;;2.40;;
25667;SDS011;18003;-33.830;151.202;2022-12-20T02:57:51;9.68;;;2.70;;
25667;SDS011;18003;-33.830;151.202;2022-12-20T03:00:21;7.90;;;2.85;;
25667;SDS011;18003;-33.830;151.202;2022-12-20T03:02:51;9.23;;;2.90;;
25667;SDS011;18003;-33.830;151.202;2022-12-20T03:05:42;8.43;;;2.90;;
25667;SDS011;18003;-33.830;151.202;2022-12-20T03:08:14;6.78;;;2.65;;
25667;SDS011;18003;-33.830;151.202;2022-12-20T03:10:45;6.08;;;2.62;;
25667;SDS011;18003;-33.830;151.202;2022-12-20T03:13:15;7.20;;;3.00;;
25667;SDS011;18003;-33.830;151.202;2022-12-20T03:15:45;9.28;;;2.77;;
25667;SDS011;18003;-33.830;151.202;2022-12-20T03:18:15;5.65;;;2.70;;
25667;SDS011;18003;-33.830;151.202;2022-12-20T03:20:45;7.12;;;2.50;;
25667;SDS011;18003;-33.830;151.202;2022-12-20T03:23:15;6.35;;;2.50;;
25667;SDS011;18003;-33.830;151.202;2022-12-20T03:25:45;7.75;;;3.02;;
25667;SDS011;18003;-33.830;151.202;2022-12-20T03:28:15;4.90;;;2.60;;
25667;SDS011;18003;-33.830;151.202;2022-12-20T03:30:45;6.35;;;2.58;;
25667;SDS011;18003;-33.830;151.202;2022-12-20T03:33:15;6.60;;;2.37;;
25667;SDS011;18003;-33.830;151.202;2022-12-20T03:35:45;13.95;;;2.83;;
25667;SDS011;18003;-33.830;151.202;2022-12-20T03:38:15;6.40;;;2.47;;
25667;SDS011;18003;-33.830;151.202;2022-12-20T03:40:45;8.20;;;2.47;;
25667;SDS011;18003;-33.830;151.202;2022-12-20T03:43:15;6.17;;;2.55;;
25667;SDS011;18003;-33.830;151.202;2022-12-20T03:45:45;6.40;;;2.33;;
25667;SDS011;18003;-33.830;151.202;2022-12-20T03:50:57;11.20;;;3.08;;
25667;SDS011;18003;-33.830;151.202;2022-12-20T03:53:27;4.37;;;2.25;;
25667;SDS011;18003;-33.830;151.202;2022-12-20T03:55:57;6.92;;;2.00;;
25667;SDS011;18003;-33.830;151.202;2022-12-20T03:58:27;5.05;;;2.40;;
25667;SDS011;18003;-33.830;151.202;2022-12-20T04:00:57;4.42;;;2.20;;
25667;SDS011;18003;-33.830;151.202;2022-12-20T04:03:28;6.03;;;2.42;;
25667;SDS011;18003;-33.830;151.202;2022-12-20T04:05:58;6.03;;;2.20;;
25667;SDS011;18003;-33.830;151.202;2022-12-20T04:08:28;5.95;;;2.30;;
25667;SDS011;18003;-33.830;151.202;2022-12-20T04:10:58;5.58;;;2.50;;
25667;SDS011;18003;-33.830;151.202;2022-12-20T04:13:51;3.87;;;2.50;;
25667;SDS011;18003;-33.830;151.202;2022-12-20T04:16:23;4.65;;;2.00;;
25667;SDS011;18003;-33.830;151.202;2022-12-20T04:18:49;4.35;;;2.17;;
25667;SDS011;18003;-33.830;151.202;2022-12-20T04:21:29;6.60;;;2.60;;
25667;SDS011;18003;-33.830;151.202;2022-12-20T04:24:00;4.47;;;2.30;;
25667;SDS011;18003;-33.830;151.202;2022-12-20T04:26:31;3.90;;;2.50;;
25667;SDS011;18003;-33.830;151.202;2022-12-20T04:29:02;9.03;;;2.40;;
25667;SDS011;18003;-33.830;151.202;2022-12-20T04:31:32;6.17;;;2.30;;
25667;SDS011;18003;-33.830;151.202;2022-12-20T04:34:02;6.25;;;2.25;;
25667;SDS011;18003;-33.830;151.202;2022-12-20T04:36:32;3.87;;;2.15;;
25667;SDS011;18003;-33.830;151.202;2022-12-20T04:39:02;4.70;;;2.10;;
25667;SDS011;18003;-33.830;151.202;2022-12-20T04:41:32;5.35;;;2.60;;
25667;SDS011;18003;-33.830;151.202;2022-12-20T04:44:02;4.97;;;2.20;;
25667;SDS011;18003;-33.830;151.202;2022-12-20T04:46:32;8.15;;;2.17;;
25667;SDS011;18003;-33.830;151.202;2022-12-20T04:49:03;4.72;;;1.95;;
25667;SDS011;18003;-33.830;151.202;2022-12-20T04:51:37;3.83;;;1.90;;
25667;SDS011;18003;-33.830;151.202;2022-12-20T04:54:06;4.92;;;2.20;;
25667;SDS011;18003;-33.830;151.202;2022-12-20T04:56:36;4.62;;;2.10;;
25667;SDS011;18003;-33.830;151.202;2022-12-20T04:59:06;3.35;;;2.00;;
25667;SDS011;18003;-33.830;151.202;2022-12-20T05:01:38;7.00;;;2.62;;
25667;SDS011;18003;-33.830;151.202;2022-12-20T05:04:08;5.42;;;1.90;;
25667;SDS011;18003;-33.830;151.202;2022-12-20T05:06:37;3.33;;;2.02;;
25667;SDS011;18003;-33.830;151.202;2022-12-20T05:09:07;4.15;;;1.90;;
25667;SDS011;18003;-33.830;151.202;2022-12-20T05:11:38;4.08;;;2.25;;
25667;SDS011;18003;-33.830;151.202;2022-12-20T05:14:08;4.40;;;2.10;;
25667;SDS011;18003;-33.830;151.202;2022-12-20T05:16:38;4.95;;;2.00;;
25667;SDS011;18003;-33.830;151.202;2022-12-20T05:19:08;4.87;;;2.17;;
25667;SDS011;18003;-33.830;151.202;2022-12-20T05:21:38;10.60;;;2.30;;
25667;SDS011;18003;-33.830;151.202;2022-12-20T05:24:25;2.92;;;2.12;;
25667;SDS011;18003;-33.830;151.202;2022-12-20T05:27:15;4.97;;;2.70;;
25667;SDS011;18003;-33.830;151.202;2022-12-20T05:29:45;3.35;;;2.25;;
25667;SDS011;18003;-33.830;151.202;2022-12-20T05:32:15;6.65;;;2.30;;
25667;SDS011;18003;-33.830;151.202;2022-12-20T05:37:33;5.55;;;2.62;;
25667;SDS011;18003;-33.830;151.202;2022-12-20T05:40:04;5.22;;;2.00;;
25667;SDS011;18003;-33.830;151.202;2022-12-20T05:42:34;5.83;;;2.00;;
25667;SDS011;18003;-33.830;151.202;2022-12-20T05:45:05;4.65;;;2.20;;
25667;SDS011;18003;-33.830;151.202;2022-12-20T05:47:35;4.50;;;1.83;;
25667;SDS011;18003;-33.830;151.202;2022-12-20T05:50:06;6.17;;;2.20;;
25667;SDS011;18003;-33.830;151.202;2022-12-20T05:55:05;5.30;;;2.20;;
25667;SDS011;18003;-33.830;151.202;2022-12-20T05:57:36;4.67;;;1.92;;
25667;SDS011;18003;-33.830;151.202;2022-12-20T06:00:06;7.95;;;2.35;;
25667;SDS011;18003;-33.830;151.202;2022-12-20T06:02:37;5.92;;;2.47;;
25667;SDS011;18003;-33.830;151.202;2022-12-20T06:05:07;7.62;;;1.72;;
25667;SDS011;18003;-33.830;151.202;2022-12-20T06:07:37;6.30;;;1.75;;
25667;SDS011;18003;-33.830;151.202;2022-12-20T06:10:08;9.03;;;1.90;;
25667;SDS011;18003;-33.830;151.202;2022-12-20T06:12:38;5.67;;;1.87;;
25667;SDS011;18003;-33.830;151.202;2022-12-20T06:15:08;5.87;;;1.50;;
25667;SDS011;18003;-33.830;151.202;2022-12-20T06:17:39;5.00;;;1.40;;
25667;SDS011;18003;-33.830;151.202;2022-12-20T06:20:09;9.60;;;1.98;;
25667;SDS011;18003;-33.830;151.202;2022-12-20T06:22:39;6.03;;;1.50;;
25667;SDS011;18003;-33.830;151.202;2022-12-20T06:25:09;5.72;;;1.62;;
25667;SDS011;18003;-33.830;151.202;2022-12-20T06:27:40;5.33;;;1.90;;
25667;SDS011;18003;-33.830;151.202;2022-12-20T06:30:10;6.70;;;1.80;;
25667;SDS011;18003;-33.830;151.202;2022-12-20T06:32:41;2.72;;;1.55;;
25667;SDS011;18003;-33.830;151.202;2022-12-20T06:35:11;5.22;;;1.80;;
25667;SDS011;18003;-33.830;151.202;2022-12-20T06:37:41;5.28;;;1.85;;
25667;SDS011;18003;-33.830;151.202;2022-12-20T06:40:11;6.87;;;1.70;;
25667;SDS011;18003;-33.830;151.202;2022-12-20T06:42:41;2.90;;;1.60;;
25667;SDS011;18003;-33.830;151.202;2022-12-20T06:45:11;3.55;;;1.77;;
25667;SDS011;18003;-33.830;151.202;2022-12-20T06:47:42;3.52;;;1.55;;
25667;SDS011;18003;-33.830;151.202;2022-12-20T06:50:12;5.45;;;1.67;;
25667;SDS011;18003;-33.830;151.202;2022-12-20T06:52:42;4.80;;;1.70;;
25667;SDS011;18003;-33.830;151.202;2022-12-20T06:55:12;3.40;;;1.40;;
25667;SDS011;18003;-33.830;151.202;2022-12-20T06:57:42;4.05;;;1.40;;
25667;SDS011;18003;-33.830;151.202;2022-12-20T07:00:12;7.10;;;1.70;;
25667;SDS011;18003;-33.830;151.202;2022-12-20T07:02:43;2.80;;;1.40;;
25667;SDS011;18003;-33.830;151.202;2022-12-20T07:05:13;3.50;;;1.40;;
25667;SDS011;18003;-33.830;151.202;2022-12-20T07:07:43;3.83;;;1.42;;
25667;SDS011;18003;-33.830;151.202;2022-12-20T07:10:13;4.15;;;1.37;;
25667;SDS011;18003;-33.830;151.202;2022-12-20T07:12:43;2.30;;;1.30;;
25667;SDS011;18003;-33.830;151.202;2022-12-20T07:15:14;1.47;;;1.10;;
25667;SDS011;18003;-33.830;151.202;2022-12-20T07:17:44;3.33;;;1.30;;
25667;SDS011;18003;-33.830;151.202;2022-12-20T07:20:14;2.90;;;1.20;;
25667;SDS011;18003;-33.830;151.202;2022-12-20T07:22:46;3.50;;;1.20;;
25667;SDS011;18003;-33.830;151.202;2022-12-20T07:25:15;4.87;;;1.57;;
25667;SDS011;18003;-33.830;151.202;2022-12-20T07:27:48;2.77;;;1.20;;
25667;SDS011;18003;-33.830;151.202;2022-12-20T07:30:18;4.45;;;1.20;;
25667;SDS011;18003;-33.830;151.202;2022-12-20T07:32:49;3.00;;;1.17;;
25667;SDS011;18003;-33.830;151.202;2022-12-20T07:35:19;2.87;;;1.20;;
25667;SDS011;18003;-33.830;151.202;2022-12-20T07:37:49;1.75;;;1.10;;
25667;SDS011;18003;-33.830;151.202;2022-12-20T07:40:19;4.70;;;1.15;;
25667;SDS011;18003;-33.830;151.202;2022-12-20T07:42:49;3.13;;;1.50;;
25667;SDS011;18003;-33.830;151.202;2022-12-20T07:45:19;4.20;;;1.25;;
25667;SDS011;18003;-33.830;151.202;2022-12-20T07:47:49;3.47;;;1.07;;
25667;SDS011;18003;-33.830;151.202;2022-12-20T07:50:20;4.22;;;1.32;;
25667;SDS011;18003;-33.830;151.202;2022-12-20T07:52:50;2.42;;;1.20;;
25667;SDS011;18003;-33.830;151.202;2022-12-20T07:55:22;3.12;;;1.42;;
25667;SDS011;18003;-33.830;151.202;2022-12-20T07:57:53;2.77;;;1.20;;
25667;SDS011;18003;-33.830;151.202;2022-12-20T08:00:24;5.08;;;1.20;;
25667;SDS011;18003;-33.830;151.202;2022-12-20T08:05:38;3.12;;;1.80;;
25667;SDS011;18003;-33.830;151.202;2022-12-20T08:08:10;4.80;;;1.25;;
25667;SDS011;18003;-33.830;151.202;2022-12-20T08:10:40;2.05;;;1.20;;
25667;SDS011;18003;-33.830;151.202;2022-12-20T08:13:10;1.62;;;1.20;;
25667;SDS011;18003;-33.830;151.202;2022-12-20T08:15:41;2.62;;;1.10;;
25667;SDS011;18003;-33.830;151.202;2022-12-20T08:18:10;3.08;;;1.10;;
25667;SDS011;18003;-33.830;151.202;2022-12-20T08:20:41;1.87;;;1.20;;
25667;SDS011;18003;-33.830;151.202;2022-12-20T08:23:11;1.85;;;1.30;;
25667;SDS011;18003;-33.830;151.202;2022-12-20T08:25:41;2.87;;;1.35;;
25667;SDS011;18003;-33.830;151.202;2022-12-20T08:28:11;4.42;;;1.27;;
25667;SDS011;18003;-33.830;151.202;2022-12-20T08:30:41;4.80;;;1.22;;
25667;SDS011;18003;-33.830;151.202;2022-12-20T08:33:12;1.33;;;1.10;;
25667;SDS011;18003;-33.830;151.202;2022-12-20T08:35:42;3.25;;;1.35;;
25667;SDS011;18003;-33.830;151.202;2022-12-20T08:38:12;2.10;;;1.20;;
25667;SDS011;18003;-33.830;151.202;2022-12-20T08:40:42;4.17;;;1.70;;
25667;SDS011;18003;-33.830;151.202;2022-12-20T08:43:12;2.40;;;1.20;;
25667;SDS011;18003;-33.830;151.202;2022-12-20T08:45:42;2.67;;;1.40;;
25667;SDS011;18003;-33.830;151.202;2022-12-20T08:48:12;2.92;;;1.40;;
25667;SDS011;18003;-33.830;151.202;2022-12-20T08:50:42;5.80;;;1.40;;
25667;SDS011;18003;-33.830;151.202;2022-12-20T08:53:12;4.08;;;1.52;;
25667;SDS011;18003;-33.830;151.202;2022-12-20T08:55:43;2.17;;;1.32;;
25667;SDS011;18003;-33.830;151.202;2022-12-20T08:58:14;3.55;;;1.65;;
25667;SDS011;18003;-33.830;151.202;2022-12-20T09:00:43;3.07;;;1.30;;
25667;SDS011;18003;-33.830;151.202;2022-12-20T09:03:13;2.92;;;1.40;;
25667;SDS011;18003;-33.830;151.202;2022-12-20T09:05:46;4.87;;;1.67;;
25667;SDS011;18003;-33.830;151.202;2022-12-20T09:08:16;3.62;;;1.57;;
25667;SDS011;18003;-33.830;151.202;2022-12-20T09:10:46;2.27;;;1.30;;
25667;SDS011;18003;-33.830;151.202;2022-12-20T09:13:16;3.10;;;1.40;;
25667;SDS011;18003;-33.830;151.202;2022-12-20T09:15:47;3.47;;;1.20;;
25667;SDS011;18003;-33.830;151.202;2022-12-20T09:18:17;2.72;;;1.20;;
25667;SDS011;18003;-33.830;151.202;2022-12-20T09:20:47;2.27;;;1.20;;
25667;SDS011;18003;-33.830;151.202;2022-12-20T09:23:17;5.17;;;2.15;;
25667;SDS011;18003;-33.830;151.202;2022-12-20T09:25:47;3.95;;;1.52;;
25667;SDS011;18003;-33.830;151.202;2022-12-20T09:28:17;2.72;;;1.57;;
25667;SDS011;18003;-33.830;151.202;2022-12-20T09:30:47;3.20;;;1.85;;
25667;SDS011;18003;-33.830;151.202;2022-12-20T09:33:17;4.60;;;1.80;;
25667;SDS011;18003;-33.830;151.202;2022-12-20T09:35:47;3.92;;;1.70;;
25667;SDS011;18003;-33.830;151.202;2022-12-20T09:38:17;4.00;;;1.60;;
25667;SDS011;18003;-33.830;151.202;2022-12-20T09:40:54;3.98;;;1.70;;
25667;SDS011;18003;-33.830;151.202;2022-12-20T09:43:20;3.05;;;1.10;;
25667;SDS011;18003;-33.830;151.202;2022-12-20T09:45:51;3.27;;;1.25;;
25667;SDS011;18003;-33.830;151.202;2022-12-20T09:48:23;2.98;;;1.00;;
25667;SDS011;18003;-33.830;151.202;2022-12-20T09:50:57;4.08;;;1.30;;
25667;SDS011;18003;-33.830;151.202;2022-12-20T09:56:45;3.70;;;1.42;;
25667;SDS011;18003;-33.830;151.202;2022-12-20T09:59:19;3.30;;;1.30;;
25667;SDS011;18003;-33.830;151.202;2022-12-20T10:01:49;1.42;;;1.32;;
25667;SDS011;18003;-33.830;151.202;2022-12-20T10:04:28;4.55;;;1.50;;
25667;SDS011;18003;-33.830;151.202;2022-12-20T10:25:39;3.22;;;1.30;;
25667;SDS011;18003;-33.830;151.202;2022-12-20T10:28:12;3.62;;;1.47;;
25667;SDS011;18003;-33.830;151.202;2022-12-20T10:30:43;2.30;;;1.65;;
25667;SDS011;18003;-33.830;151.202;2022-12-20T10:33:20;2.45;;;1.62;;
25667;SDS011;18003;-33.830;151.202;2022-12-20T10:35:50;1.77;;;1.50;;
25667;SDS011;18003;-33.830;151.202;2022-12-20T10:38:20;3.92;;;1.77;;
25667;SDS011;18003;-33.830;151.202;2022-12-20T10:43:26;3.10;;;1.70;;
25667;SDS011;18003;-33.830;151.202;2022-12-20T10:45:59;5.12;;;1.90;;
25667;SDS011;18003;-33.830;151.202;2022-12-20T10:48:30;1.70;;;1.40;;
25667;SDS011;18003;-33.830;151.202;2022-12-20T10:53:52;2.58;;;1.45;;
25667;SDS011;18003;-33.830;151.202;2022-12-20T10:56:33;3.30;;;1.35;;
25667;SDS011;18003;-33.830;151.202;2022-12-20T11:01:48;4.30;;;1.80;;
25667;SDS011;18003;-33.830;151.202;2022-12-20T11:04:25;2.40;;;1.20;;
25667;SDS011;18003;-33.830;151.202;2022-12-20T11:06:59;3.87;;;1.67;;
25667;SDS011;18003;-33.830;151.202;2022-12-20T11:09:36;2.22;;;1.22;;
25667;SDS011;18003;-33.830;151.202;2022-12-20T11:12:14;2.27;;;1.30;;
25667;SDS011;18003;-33.830;151.202;2022-12-20T11:14:41;2.15;;;1.40;;
25667;SDS011;18003;-33.830;151.202;2022-12-20T11:22:42;4.28;;;1.50;;
25667;SDS011;18003;-33.830;151.202;2022-12-20T11:31:06;3.00;;;1.57;;
25667;SDS011;18003;-33.830;151.202;2022-12-20T11:41:56;3.08;;;1.40;;
25667;SDS011;18003;-33.830;151.202;2022-12-20T11:44:32;1.87;;;1.22;;
25667;SDS011;18003;-33.830;151.202;2022-12-20T11:52:57;3.50;;;1.35;;
25667;SDS011;18003;-33.830;151.202;2022-12-20T11:55:42;3.27;;;1.60;;
25667;SDS011;18003;-33.830;151.202;2022-12-20T12:00:50;3.75;;;1.40;;
25667;SDS011;18003;-33.830;151.202;2022-12-20T12:03:37;4.65;;;1.30;;
25667;SDS011;18003;-33.830;151.202;2022-12-20T12:06:28;2.22;;;1.25;;
25667;SDS011;18003;-33.830;151.202;2022-12-20T12:11:49;2.65;;;1.35;;
25667;SDS011;18003;-33.830;151.202;2022-12-20T12:14:27;5.10;;;1.40;;
25667;SDS011;18003;-33.830;151.202;2022-12-20T12:16:58;4.03;;;1.30;;
25667;SDS011;18003;-33.830;151.202;2022-12-20T12:19:29;2.40;;;1.40;;
25667;SDS011;18003;-33.830;151.202;2022-12-20T12:22:04;3.72;;;1.30;;
25667;SDS011;18003;-33.830;151.202;2022-12-20T12:24:35;5.45;;;1.85;;
25667;SDS011;18003;-33.830;151.202;2022-12-20T12:27:22;3.33;;;1.40;;
25667;SDS011;18003;-33.830;151.202;2022-12-20T12:29:54;3.83;;;1.35;;
25667;SDS011;18003;-33.830;151.202;2022-12-20T12:38:43;4.53;;;1.65;;
25667;SDS011;18003;-33.830;151.202;2022-12-20T12:43:16;5.08;;;1.90;;
25667;SDS011;18003;-33.830;151.202;2022-12-20T12:45:51;6.42;;;1.70;;
25667;SDS011;18003;-33.830;151.202;2022-12-20T12:51:14;3.20;;;1.57;;
25667;SDS011;18003;-33.830;151.202;2022-12-20T12:53:48;7.40;;;1.90;;
25667;SDS011;18003;-33.830;151.202;2022-12-20T13:01:48;4.80;;;1.72;;
25667;SDS011;18003;-33.830;151.202;2022-12-20T13:07:02;3.75;;;1.67;;
25667;SDS011;18003;-33.830;151.202;2022-12-20T13:14:53;6.50;;;1.85;;
25667;SDS011;18003;-33.830;151.202;2022-12-20T13:19:58;3.95;;;1.70;;
25667;SDS011;18003;-33.830;151.202;2022-12-20T13:22:28;5.03;;;1.70;;
25667;SDS011;18003;-33.830;151.202;2022-12-20T13:24:59;4.53;;;1.57;;
25667;SDS011;18003;-33.830;151.202;2022-12-20T13:27:30;4.78;;;1.60;;
25667;SDS011;18003;-33.830;151.202;2022-12-20T13:38:04;5.30;;;1.40;;
25667;SDS011;18003;-33.830;151.202;2022-12-20T13:40:47;3.33;;;1.60;;
25667;SDS011;18003;-33.830;151.202;2022-12-20T13:45:57;5.12;;;1.95;;
25667;SDS011;18003;-33.830;151.202;2022-12-20T13:48:37;3.12;;;1.40;;
25667;SDS011;18003;-33.830;151.202;2022-12-20T13:51:04;4.97;;;1.62;;
25667;SDS011;18003;-33.830;151.202;2022-12-20T13:53:36;4.33;;;1.75;;
25667;SDS011;18003;-33.830;151.202;2022-12-20T13:59:05;4.45;;;1.62;;
25667;SDS011;18003;-33.830;151.202;2022-12-20T14:01:48;8.20;;;2.05;;
25667;SDS011;18003;-33.830;151.202;2022-12-20T14:04:22;2.85;;;1.37;;
25667;SDS011;18003;-33.830;151.202;2022-12-20T14:06:57;2.98;;;1.50;;
25667;SDS011;18003;-33.830;151.202;2022-12-20T14:09:35;7.70;;;1.87;;
25667;SDS011;18003;-33.830;151.202;2022-12-20T14:12:08;4.00;;;1.70;;
25667;SDS011;18003;-33.830;151.202;2022-12-20T14:14:43;3.42;;;1.75;;
25667;SDS011;18003;-33.830;151.202;2022-12-20T14:17:29;3.25;;;1.32;;
25667;SDS011;18003;-33.830;151.202;2022-12-20T14:22:41;4.03;;;1.30;;
25667;SDS011;18003;-33.830;151.202;2022-12-20T14:25:16;6.05;;;1.60;;
25667;SDS011;18003;-33.830;151.202;2022-12-20T14:27:47;4.12;;;1.40;;
25667;SDS011;18003;-33.830;151.202;2022-12-20T14:30:25;5.28;;;2.00;;
25667;SDS011;18003;-33.830;151.202;2022-12-20T14:32:55;3.83;;;1.70;;
25667;SDS011;18003;-33.830;151.202;2022-12-20T14:35:25;3.15;;;1.52;;
25667;SDS011;18003;-33.830;151.202;2022-12-20T14:37:59;4.00;;;1.62;;
25667;SDS011;18003;-33.830;151.202;2022-12-20T14:40:29;4.65;;;1.67;;
25667;SDS011;18003;-33.830;151.202;2022-12-20T14:43:12;5.72;;;2.30;;
25667;SDS011;18003;-33.830;151.202;2022-12-20T14:48:04;4.83;;;1.65;;
25667;SDS011;18003;-33.830;151.202;2022-12-20T14:50:36;3.83;;;1.62;;
25667;SDS011;18003;-33.830;151.202;2022-12-20T14:53:20;6.37;;;1.98;;
25667;SDS011;18003;-33.830;151.202;2022-12-20T14:55:52;4.87;;;1.70;;
25667;SDS011;18003;-33.830;151.202;2022-12-20T14:58:33;2.25;;;1.40;;
25667;SDS011;18003;-33.830;151.202;2022-12-20T15:01:19;2.47;;;1.50;;
25667;SDS011;18003;-33.830;151.202;2022-12-20T15:06:42;4.80;;;1.95;;
25667;SDS011;18003;-33.830;151.202;2022-12-20T15:09:15;2.45;;;1.77;;
25667;SDS011;18003;-33.830;151.202;2022-12-20T15:19:35;3.27;;;1.50;;
25667;SDS011;18003;-33.830;151.202;2022-12-20T15:22:05;4.83;;;1.57;;
25667;SDS011;18003;-33.830;151.202;2022-12-20T15:24:36;3.30;;;1.45;;
25667;SDS011;18003;-33.830;151.202;2022-12-20T15:27:09;3.70;;;1.77;;
25667;SDS011;18003;-33.830;151.202;2022-12-20T15:29:43;3.80;;;1.67;;
25667;SDS011;18003;-33.830;151.202;2022-12-20T15:32:14;3.65;;;1.72;;
25667;SDS011;18003;-33.830;151.202;2022-12-20T15:34:45;2.70;;;1.60;;
25667;SDS011;18003;-33.830;151.202;2022-12-20T15:37:15;5.08;;;1.90;;
25667;SDS011;18003;-33.830;151.202;2022-12-20T15:39:45;3.12;;;1.50;;
25667;SDS011;18003;-33.830;151.202;2022-12-20T15:42:16;3.37;;;1.60;;
25667;SDS011;18003;-33.830;151.202;2022-12-20T15:44:46;3.25;;;1.70;;
25667;SDS011;18003;-33.830;151.202;2022-12-20T15:47:16;3.60;;;1.60;;
25667;SDS011;18003;-33.830;151.202;2022-12-20T15:49:46;5.08;;;1.60;;
25667;SDS011;18003;-33.830;151.202;2022-12-20T15:52:20;3.30;;;1.60;;
25667;SDS011;18003;-33.830;151.202;2022-12-20T15:54:50;7.08;;;1.60;;
25667;SDS011;18003;-33.830;151.202;2022-12-20T15:57:21;4.17;;;1.57;;
25667;SDS011;18003;-33.830;151.202;2022-12-20T15:59:50;2.52;;;1.55;;
25667;SDS011;18003;-33.830;151.202;2022-12-20T16:02:22;4.07;;;1.80;;
25667;SDS011;18003;-33.830;151.202;2022-12-20T16:04:54;4.15;;;1.80;;
25667;SDS011;18003;-33.830;151.202;2022-12-20T16:07:24;4.97;;;1.75;;
25667;SDS011;18003;-33.830;151.202;2022-12-20T16:09:55;3.47;;;1.60;;
25667;SDS011;18003;-33.830;151.202;2022-12-20T16:12:31;4.97;;;1.80;;
25667;SDS011;18003;-33.830;151.202;2022-12-20T16:14:57;3.17;;;1.52;;
25667;SDS011;18003;-33.830;151.202;2022-12-20T16:17:27;5.35;;;1.80;;
25667;SDS011;18003;-33.830;151.202;2022-12-20T16:19:57;4.80;;;1.55;;
25667;SDS011;18003;-33.830;151.202;2022-12-20T16:22:27;4.25;;;1.70;;
25667;SDS011;18003;-33.830;151.202;2022-12-20T16:24:57;3.12;;;1.50;;
25667;SDS011;18003;-33.830;151.202;2022-12-20T16:27:27;4.47;;;1.47;;
25667;SDS011;18003;-33.830;151.202;2022-12-20T16:29:57;4.70;;;1.65;;
25667;SDS011;18003;-33.830;151.202;2022-12-20T16:32:27;2.87;;;1.82;;
25667;SDS011;18003;-33.830;151.202;2022-12-20T16:34:57;3.52;;;1.50;;
25667;SDS011;18003;-33.830;151.202;2022-12-20T16:37:27;5.78;;;1.67;;
25667;SDS011;18003;-33.830;151.202;2022-12-20T16:39:57;5.40;;;1.70;;
25667;SDS011;18003;-33.830;151.202;2022-12-20T16:42:27;2.62;;;1.65;;
25667;SDS011;18003;-33.830;151.202;2022-12-20T16:44:57;3.62;;;1.70;;
25667;SDS011;18003;-33.830;151.202;2022-12-20T16:47:27;3.00;;;1.70;;
25667;SDS011;18003;-33.830;151.202;2022-12-20T16:49:57;6.08;;;1.80;;
25667;SDS011;18003;-33.830;151.202;2022-12-20T16:52:27;4.30;;;1.77;;
25667;SDS011;18003;-33.830;151.202;2022-12-20T16:54:58;5.05;;;1.70;;
25667;SDS011;18003;-33.830;151.202;2022-12-20T16:57:28;5.28;;;1.37;;
25667;SDS011;18003;-33.830;151.202;2022-12-20T16:59:58;6.55;;;1.60;;